sensor_id;sensor_type;location;lat;lon;timestamp;P1;durP1;ratioP1;P2;durP2;ratioP2
26488;SDS011;14169;43.684;10.484;2023-03-05T00:01:16;12.75;;;11.40;;
26488;SDS011;14169;43.684;10.484;2023-03-05T00:03:44;18.88;;;12.10;;
26488;SDS011;14169;43.684;10.484;2023-03-05T00:06:10;14.55;;;12.68;;
26488;SDS011;14169;43.684;10.484;2023-03-05T00:08:35;15.65;;;13.50;;
26488;SDS011;14169;43.684;10.484;2023-03-05T00:11:05;18.85;;;12.25;;
26488;SDS011;14169;43.684;10.484;2023-03-05T00:13:32;15.25;;;13.75;;
26488;SDS011;14169;43.684;10.484;2023-03-05T00:16:01;16.05;;;12.45;;
26488;SDS011;14169;43.684;10.484;2023-03-05T00:18:37;19.25;;;13.38;;
26488;SDS011;14169;43.684;10.484;2023-03-05T00:21:04;17.70;;;12.52;;
26488;SDS011;14169;43.684;10.484;2023-03-05T00:23:30;14.85;;;11.50;;
26488;SDS011;14169;43.684;10.484;2023-03-05T00:25:55;12.63;;;11.38;;
26488;SDS011;14169;43.684;10.484;2023-03-05T00:28:24;15.30;;;10.45;;
26488;SDS011;14169;43.684;10.484;2023-03-05T00:30:49;13.05;;;10.82;;
26488;SDS011;14169;43.684;10.484;2023-03-05T00:33:15;15.10;;;10.82;;
26488;SDS011;14169;43.684;10.484;2023-03-05T00:35:44;12.13;;;10.93;;
26488;SDS011;14169;43.684;10.484;2023-03-05T00:38:10;17.58;;;10.52;;
26488;SDS011;14169;43.684;10.484;2023-03-05T00:40:37;12.18;;;10.95;;
26488;SDS011;14169;43.684;10.484;2023-03-05T00:43:04;14.98;;;10.93;;
26488;SDS011;14169;43.684;10.484;2023-03-05T00:45:30;13.52;;;11.38;;
26488;SDS011;14169;43.684;10.484;2023-03-05T00:47:56;13.52;;;10.95;;
26488;SDS011;14169;43.684;10.484;2023-03-05T00:50:21;16.02;;;12.18;;
26488;SDS011;14169;43.684;10.484;2023-03-05T00:52:47;15.15;;;12.82;;
26488;SDS011;14169;43.684;10.484;2023-03-05T00:55:12;17.00;;;12.75;;
26488;SDS011;14169;43.684;10.484;2023-03-05T00:57:37;23.65;;;13.32;;
26488;SDS011;14169;43.684;10.484;2023-03-05T01:00:03;23.13;;;15.38;;
26488;SDS011;14169;43.684;10.484;2023-03-05T01:02:30;27.58;;;14.80;;
26488;SDS011;14169;43.684;10.484;2023-03-05T01:04:55;15.90;;;13.65;;
26488;SDS011;14169;43.684;10.484;2023-03-05T01:07:21;18.60;;;15.15;;
26488;SDS011;14169;43.684;10.484;2023-03-05T01:09:46;22.77;;;15.52;;
26488;SDS011;14169;43.684;10.484;2023-03-05T01:12:11;26.48;;;18.38;;
26488;SDS011;14169;43.684;10.484;2023-03-05T01:14:37;21.33;;;17.27;;
26488;SDS011;14169;43.684;10.484;2023-03-05T01:17:02;26.58;;;18.55;;
26488;SDS011;14169;43.684;10.484;2023-03-05T01:19:28;28.80;;;20.23;;
26488;SDS011;14169;43.684;10.484;2023-03-05T01:21:54;27.60;;;21.00;;
26488;SDS011;14169;43.684;10.484;2023-03-05T01:24:19;34.25;;;22.23;;
26488;SDS011;14169;43.684;10.484;2023-03-05T01:26:45;32.38;;;23.88;;
26488;SDS011;14169;43.684;10.484;2023-03-05T01:29:11;30.40;;;23.08;;
26488;SDS011;14169;43.684;10.484;2023-03-05T01:31:36;30.98;;;23.77;;
26488;SDS011;14169;43.684;10.484;2023-03-05T01:34:02;34.90;;;23.88;;
26488;SDS011;14169;43.684;10.484;2023-03-05T01:36:27;33.92;;;23.42;;
26488;SDS011;14169;43.684;10.484;2023-03-05T01:38:53;38.15;;;23.55;;
26488;SDS011;14169;43.684;10.484;2023-03-05T01:41:19;31.83;;;23.08;;
26488;SDS011;14169;43.684;10.484;2023-03-05T01:43:45;24.65;;;20.48;;
26488;SDS011;14169;43.684;10.484;2023-03-05T01:48:57;23.88;;;19.73;;
26488;SDS011;14169;43.684;10.484;2023-03-05T01:51:34;23.40;;;16.70;;
26488;SDS011;14169;43.684;10.484;2023-03-05T01:56:31;25.45;;;17.85;;
26488;SDS011;14169;43.684;10.484;2023-03-05T01:58:57;27.73;;;18.63;;
26488;SDS011;14169;43.684;10.484;2023-03-05T02:01:28;29.90;;;19.67;;
26488;SDS011;14169;43.684;10.484;2023-03-05T02:04:15;28.15;;;19.20;;
26488;SDS011;14169;43.684;10.484;2023-03-05T02:06:43;32.08;;;20.35;;
26488;SDS011;14169;43.684;10.484;2023-03-05T02:09:09;28.15;;;19.75;;
26488;SDS011;14169;43.684;10.484;2023-03-05T02:11:35;29.08;;;19.80;;
26488;SDS011;14169;43.684;10.484;2023-03-05T02:14:01;30.83;;;19.75;;
26488;SDS011;14169;43.684;10.484;2023-03-05T02:16:28;26.70;;;19.63;;
26488;SDS011;14169;43.684;10.484;2023-03-05T02:19:05;27.65;;;19.90;;
26488;SDS011;14169;43.684;10.484;2023-03-05T02:21:43;25.60;;;19.42;;
26488;SDS011;14169;43.684;10.484;2023-03-05T02:24:12;24.90;;;19.08;;
26488;SDS011;14169;43.684;10.484;2023-03-05T02:26:39;29.90;;;19.17;;
26488;SDS011;14169;43.684;10.484;2023-03-05T02:29:07;27.58;;;19.60;;
26488;SDS011;14169;43.684;10.484;2023-03-05T02:31:34;25.88;;;17.92;;
26488;SDS011;14169;43.684;10.484;2023-03-05T02:34:00;26.75;;;17.52;;
26488;SDS011;14169;43.684;10.484;2023-03-05T02:36:25;26.27;;;18.98;;
26488;SDS011;14169;43.684;10.484;2023-03-05T02:38:51;33.17;;;19.90;;
26488;SDS011;14169;43.684;10.484;2023-03-05T02:41:18;23.35;;;17.35;;
26488;SDS011;14169;43.684;10.484;2023-03-05T02:43:43;22.23;;;18.27;;
26488;SDS011;14169;43.684;10.484;2023-03-05T02:46:09;26.02;;;17.60;;
26488;SDS011;14169;43.684;10.484;2023-03-05T02:48:35;23.92;;;18.48;;
26488;SDS011;14169;43.684;10.484;2023-03-05T02:51:01;26.00;;;17.65;;
26488;SDS011;14169;43.684;10.484;2023-03-05T02:53:27;24.70;;;17.52;;
26488;SDS011;14169;43.684;10.484;2023-03-05T02:55:53;27.75;;;18.27;;
26488;SDS011;14169;43.684;10.484;2023-03-05T02:58:18;23.45;;;17.00;;
26488;SDS011;14169;43.684;10.484;2023-03-05T03:00:44;21.77;;;17.15;;
26488;SDS011;14169;43.684;10.484;2023-03-05T03:03:10;26.40;;;18.63;;
26488;SDS011;14169;43.684;10.484;2023-03-05T03:05:36;22.98;;;17.25;;
26488;SDS011;14169;43.684;10.484;2023-03-05T03:08:02;26.15;;;17.83;;
26488;SDS011;14169;43.684;10.484;2023-03-05T03:10:27;20.90;;;17.13;;
26488;SDS011;14169;43.684;10.484;2023-03-05T03:12:53;31.80;;;18.00;;
26488;SDS011;14169;43.684;10.484;2023-03-05T03:15:18;21.83;;;17.50;;
26488;SDS011;14169;43.684;10.484;2023-03-05T03:17:43;23.08;;;17.67;;
26488;SDS011;14169;43.684;10.484;2023-03-05T03:20:10;23.23;;;18.08;;
26488;SDS011;14169;43.684;10.484;2023-03-05T03:22:38;29.95;;;18.65;;
26488;SDS011;14169;43.684;10.484;2023-03-05T03:25:04;27.30;;;18.98;;
26488;SDS011;14169;43.684;10.484;2023-03-05T03:27:30;21.02;;;16.83;;
26488;SDS011;14169;43.684;10.484;2023-03-05T03:29:56;22.88;;;17.40;;
26488;SDS011;14169;43.684;10.484;2023-03-05T03:32:26;26.17;;;18.38;;
26488;SDS011;14169;43.684;10.484;2023-03-05T03:34:52;24.73;;;18.95;;
26488;SDS011;14169;43.684;10.484;2023-03-05T03:37:17;28.52;;;19.08;;
26488;SDS011;14169;43.684;10.484;2023-03-05T03:39:43;26.27;;;18.50;;
26488;SDS011;14169;43.684;10.484;2023-03-05T03:42:08;27.27;;;19.45;;
26488;SDS011;14169;43.684;10.484;2023-03-05T03:44:33;29.42;;;21.10;;
26488;SDS011;14169;43.684;10.484;2023-03-05T03:46:59;27.83;;;20.30;;
26488;SDS011;14169;43.684;10.484;2023-03-05T03:49:25;25.48;;;21.30;;
26488;SDS011;14169;43.684;10.484;2023-03-05T03:51:52;32.03;;;22.92;;
26488;SDS011;14169;43.684;10.484;2023-03-05T03:54:18;29.65;;;20.80;;
26488;SDS011;14169;43.684;10.484;2023-03-05T03:56:45;28.88;;;20.00;;
26488;SDS011;14169;43.684;10.484;2023-03-05T03:59:11;30.98;;;20.70;;
26488;SDS011;14169;43.684;10.484;2023-03-05T04:01:37;28.70;;;21.88;;
26488;SDS011;14169;43.684;10.484;2023-03-05T04:04:03;28.00;;;21.50;;
26488;SDS011;14169;43.684;10.484;2023-03-05T04:06:29;26.17;;;20.77;;
26488;SDS011;14169;43.684;10.484;2023-03-05T04:08:55;31.15;;;20.88;;
26488;SDS011;14169;43.684;10.484;2023-03-05T04:11:20;26.42;;;20.40;;
26488;SDS011;14169;43.684;10.484;2023-03-05T04:13:46;26.13;;;20.73;;
26488;SDS011;14169;43.684;10.484;2023-03-05T04:16:12;27.88;;;20.88;;
26488;SDS011;14169;43.684;10.484;2023-03-05T04:18:39;27.35;;;19.50;;
26488;SDS011;14169;43.684;10.484;2023-03-05T04:21:04;27.65;;;19.67;;
26488;SDS011;14169;43.684;10.484;2023-03-05T04:23:30;28.73;;;18.90;;
26488;SDS011;14169;43.684;10.484;2023-03-05T04:25:55;24.90;;;19.27;;
26488;SDS011;14169;43.684;10.484;2023-03-05T04:28:21;29.00;;;21.83;;
26488;SDS011;14169;43.684;10.484;2023-03-05T04:30:46;26.08;;;21.00;;
26488;SDS011;14169;43.684;10.484;2023-03-05T04:33:12;38.70;;;21.98;;
26488;SDS011;14169;43.684;10.484;2023-03-05T04:35:37;26.75;;;20.65;;
26488;SDS011;14169;43.684;10.484;2023-03-05T04:38:03;31.17;;;21.75;;
26488;SDS011;14169;43.684;10.484;2023-03-05T04:40:28;34.28;;;22.73;;
26488;SDS011;14169;43.684;10.484;2023-03-05T04:42:54;34.17;;;22.20;;
26488;SDS011;14169;43.684;10.484;2023-03-05T04:45:19;31.40;;;21.52;;
26488;SDS011;14169;43.684;10.484;2023-03-05T04:47:45;31.48;;;22.48;;
26488;SDS011;14169;43.684;10.484;2023-03-05T04:50:10;27.40;;;20.38;;
26488;SDS011;14169;43.684;10.484;2023-03-05T04:52:38;28.02;;;22.08;;
26488;SDS011;14169;43.684;10.484;2023-03-05T04:55:07;30.83;;;23.02;;
26488;SDS011;14169;43.684;10.484;2023-03-05T04:57:34;28.08;;;21.90;;
26488;SDS011;14169;43.684;10.484;2023-03-05T05:00:00;31.98;;;22.02;;
26488;SDS011;14169;43.684;10.484;2023-03-05T05:02:25;28.63;;;22.48;;
26488;SDS011;14169;43.684;10.484;2023-03-05T05:04:53;28.92;;;22.15;;
26488;SDS011;14169;43.684;10.484;2023-03-05T05:07:19;30.45;;;23.23;;
26488;SDS011;14169;43.684;10.484;2023-03-05T05:09:45;30.50;;;22.60;;
26488;SDS011;14169;43.684;10.484;2023-03-05T05:12:10;30.73;;;22.38;;
26488;SDS011;14169;43.684;10.484;2023-03-05T05:14:35;29.33;;;22.20;;
26488;SDS011;14169;43.684;10.484;2023-03-05T05:17:01;32.13;;;21.27;;
26488;SDS011;14169;43.684;10.484;2023-03-05T05:19:29;32.60;;;23.42;;
26488;SDS011;14169;43.684;10.484;2023-03-05T05:21:56;31.33;;;21.75;;
26488;SDS011;14169;43.684;10.484;2023-03-05T05:24:21;35.08;;;22.25;;
26488;SDS011;14169;43.684;10.484;2023-03-05T05:26:46;25.65;;;20.73;;
26488;SDS011;14169;43.684;10.484;2023-03-05T05:29:12;36.97;;;23.15;;
26488;SDS011;14169;43.684;10.484;2023-03-05T05:31:37;26.73;;;21.08;;
26488;SDS011;14169;43.684;10.484;2023-03-05T05:34:03;34.38;;;22.70;;
26488;SDS011;14169;43.684;10.484;2023-03-05T05:36:28;32.30;;;22.98;;
26488;SDS011;14169;43.684;10.484;2023-03-05T05:38:54;31.95;;;23.02;;
26488;SDS011;14169;43.684;10.484;2023-03-05T05:41:19;38.78;;;22.02;;
26488;SDS011;14169;43.684;10.484;2023-03-05T05:43:45;32.00;;;22.17;;
26488;SDS011;14169;43.684;10.484;2023-03-05T05:46:11;38.95;;;22.48;;
26488;SDS011;14169;43.684;10.484;2023-03-05T05:48:40;27.38;;;20.60;;
26488;SDS011;14169;43.684;10.484;2023-03-05T05:51:07;35.88;;;22.88;;
26488;SDS011;14169;43.684;10.484;2023-03-05T05:53:35;28.45;;;20.70;;
26488;SDS011;14169;43.684;10.484;2023-03-05T05:56:03;31.95;;;21.20;;
26488;SDS011;14169;43.684;10.484;2023-03-05T05:58:29;30.65;;;21.48;;
26488;SDS011;14169;43.684;10.484;2023-03-05T06:00:55;29.83;;;23.08;;
26488;SDS011;14169;43.684;10.484;2023-03-05T06:03:20;27.73;;;21.23;;
26488;SDS011;14169;43.684;10.484;2023-03-05T06:05:46;31.85;;;22.05;;
26488;SDS011;14169;43.684;10.484;2023-03-05T06:08:11;32.30;;;21.58;;
26488;SDS011;14169;43.684;10.484;2023-03-05T06:10:37;30.35;;;21.60;;
26488;SDS011;14169;43.684;10.484;2023-03-05T06:13:02;29.70;;;20.42;;
26488;SDS011;14169;43.684;10.484;2023-03-05T06:15:28;28.98;;;21.75;;
26488;SDS011;14169;43.684;10.484;2023-03-05T06:17:54;26.48;;;19.45;;
26488;SDS011;14169;43.684;10.484;2023-03-05T06:20:19;21.42;;;19.10;;
26488;SDS011;14169;43.684;10.484;2023-03-05T06:22:45;27.27;;;20.58;;
26488;SDS011;14169;43.684;10.484;2023-03-05T06:25:11;25.25;;;20.60;;
26488;SDS011;14169;43.684;10.484;2023-03-05T06:27:37;34.13;;;21.10;;
26488;SDS011;14169;43.684;10.484;2023-03-05T06:30:03;26.40;;;20.30;;
26488;SDS011;14169;43.684;10.484;2023-03-05T06:32:30;26.70;;;20.95;;
26488;SDS011;14169;43.684;10.484;2023-03-05T06:34:55;28.35;;;20.15;;
26488;SDS011;14169;43.684;10.484;2023-03-05T06:37:21;22.02;;;19.08;;
26488;SDS011;14169;43.684;10.484;2023-03-05T06:39:46;27.02;;;20.13;;
26488;SDS011;14169;43.684;10.484;2023-03-05T06:42:12;29.70;;;18.52;;
26488;SDS011;14169;43.684;10.484;2023-03-05T06:44:38;23.58;;;18.50;;
26488;SDS011;14169;43.684;10.484;2023-03-05T06:47:05;30.33;;;19.23;;
26488;SDS011;14169;43.684;10.484;2023-03-05T06:49:31;25.42;;;17.48;;
26488;SDS011;14169;43.684;10.484;2023-03-05T06:51:56;25.42;;;17.50;;
26488;SDS011;14169;43.684;10.484;2023-03-05T06:54:22;25.45;;;16.77;;
26488;SDS011;14169;43.684;10.484;2023-03-05T06:56:47;19.90;;;16.33;;
26488;SDS011;14169;43.684;10.484;2023-03-05T06:59:13;20.02;;;16.55;;
26488;SDS011;14169;43.684;10.484;2023-03-05T07:01:40;20.45;;;16.58;;
26488;SDS011;14169;43.684;10.484;2023-03-05T07:04:06;22.88;;;15.65;;
26488;SDS011;14169;43.684;10.484;2023-03-05T07:06:32;22.45;;;15.80;;
26488;SDS011;14169;43.684;10.484;2023-03-05T07:08:58;20.95;;;16.13;;
26488;SDS011;14169;43.684;10.484;2023-03-05T07:11:28;17.40;;;15.75;;
26488;SDS011;14169;43.684;10.484;2023-03-05T07:13:53;16.67;;;14.98;;
26488;SDS011;14169;43.684;10.484;2023-03-05T07:16:20;21.92;;;16.65;;
26488;SDS011;14169;43.684;10.484;2023-03-05T07:18:53;21.92;;;16.58;;
26488;SDS011;14169;43.684;10.484;2023-03-05T07:21:22;19.63;;;15.30;;
26488;SDS011;14169;43.684;10.484;2023-03-05T07:23:51;17.45;;;14.45;;
26488;SDS011;14169;43.684;10.484;2023-03-05T07:26:18;19.75;;;14.88;;
26488;SDS011;14169;43.684;10.484;2023-03-05T07:28:43;18.45;;;14.80;;
26488;SDS011;14169;43.684;10.484;2023-03-05T07:31:13;24.88;;;16.83;;
26488;SDS011;14169;43.684;10.484;2023-03-05T07:33:40;25.08;;;18.95;;
26488;SDS011;14169;43.684;10.484;2023-03-05T07:36:06;24.63;;;19.88;;
26488;SDS011;14169;43.684;10.484;2023-03-05T07:38:32;20.23;;;17.48;;
26488;SDS011;14169;43.684;10.484;2023-03-05T07:41:02;25.15;;;16.98;;
26488;SDS011;14169;43.684;10.484;2023-03-05T07:43:29;25.02;;;17.73;;
26488;SDS011;14169;43.684;10.484;2023-03-05T07:45:54;32.33;;;19.15;;
26488;SDS011;14169;43.684;10.484;2023-03-05T07:48:20;23.23;;;16.95;;
26488;SDS011;14169;43.684;10.484;2023-03-05T07:50:45;23.23;;;17.00;;
26488;SDS011;14169;43.684;10.484;2023-03-05T07:53:11;18.77;;;16.55;;
26488;SDS011;14169;43.684;10.484;2023-03-05T07:55:43;23.92;;;16.00;;
26488;SDS011;14169;43.684;10.484;2023-03-05T07:58:10;21.10;;;15.90;;
26488;SDS011;14169;43.684;10.484;2023-03-05T08:00:36;19.77;;;15.52;;
26488;SDS011;14169;43.684;10.484;2023-03-05T08:03:02;21.55;;;15.02;;
26488;SDS011;14169;43.684;10.484;2023-03-05T08:05:27;19.25;;;14.95;;
26488;SDS011;14169;43.684;10.484;2023-03-05T08:07:53;14.63;;;13.13;;
26488;SDS011;14169;43.684;10.484;2023-03-05T08:10:18;15.95;;;14.07;;
26488;SDS011;14169;43.684;10.484;2023-03-05T08:12:43;20.05;;;15.25;;
26488;SDS011;14169;43.684;10.484;2023-03-05T08:15:09;22.27;;;15.07;;
26488;SDS011;14169;43.684;10.484;2023-03-05T08:17:35;21.17;;;13.43;;
26488;SDS011;14169;43.684;10.484;2023-03-05T08:20:00;17.48;;;13.77;;
26488;SDS011;14169;43.684;10.484;2023-03-05T08:22:31;18.85;;;13.93;;
26488;SDS011;14169;43.684;10.484;2023-03-05T08:24:58;15.32;;;13.73;;
26488;SDS011;14169;43.684;10.484;2023-03-05T08:27:24;14.15;;;12.80;;
26488;SDS011;14169;43.684;10.484;2023-03-05T08:29:49;14.73;;;12.38;;
26488;SDS011;14169;43.684;10.484;2023-03-05T08:32:15;13.68;;;12.30;;
26488;SDS011;14169;43.684;10.484;2023-03-05T08:34:40;12.15;;;10.77;;
26488;SDS011;14169;43.684;10.484;2023-03-05T08:37:06;14.35;;;10.60;;
26488;SDS011;14169;43.684;10.484;2023-03-05T08:39:33;12.80;;;9.40;;
26488;SDS011;14169;43.684;10.484;2023-03-05T08:41:59;11.52;;;10.35;;
26488;SDS011;14169;43.684;10.484;2023-03-05T08:44:24;11.65;;;10.50;;
26488;SDS011;14169;43.684;10.484;2023-03-05T08:46:50;11.00;;;9.52;;
26488;SDS011;14169;43.684;10.484;2023-03-05T08:49:15;11.93;;;10.25;;
26488;SDS011;14169;43.684;10.484;2023-03-05T08:51:40;12.95;;;10.90;;
26488;SDS011;14169;43.684;10.484;2023-03-05T08:54:06;12.50;;;11.35;;
26488;SDS011;14169;43.684;10.484;2023-03-05T08:56:35;13.70;;;11.57;;
26488;SDS011;14169;43.684;10.484;2023-03-05T08:59:01;14.65;;;11.35;;
26488;SDS011;14169;43.684;10.484;2023-03-05T09:01:27;12.70;;;11.30;;
26488;SDS011;14169;43.684;10.484;2023-03-05T09:03:54;17.00;;;11.95;;
26488;SDS011;14169;43.684;10.484;2023-03-05T09:06:20;21.27;;;12.23;;
26488;SDS011;14169;43.684;10.484;2023-03-05T09:08:45;17.88;;;11.52;;
26488;SDS011;14169;43.684;10.484;2023-03-05T09:11:11;18.98;;;11.45;;
26488;SDS011;14169;43.684;10.484;2023-03-05T09:13:37;16.25;;;11.05;;
26488;SDS011;14169;43.684;10.484;2023-03-05T09:16:04;16.55;;;11.57;;
26488;SDS011;14169;43.684;10.484;2023-03-05T09:18:31;16.33;;;11.75;;
26488;SDS011;14169;43.684;10.484;2023-03-05T09:20:57;14.98;;;11.63;;
26488;SDS011;14169;43.684;10.484;2023-03-05T09:23:23;12.25;;;9.93;;
26488;SDS011;14169;43.684;10.484;2023-03-05T09:25:49;14.38;;;11.13;;
26488;SDS011;14169;43.684;10.484;2023-03-05T09:28:15;10.40;;;9.40;;
26488;SDS011;14169;43.684;10.484;2023-03-05T09:30:41;14.63;;;10.80;;
26488;SDS011;14169;43.684;10.484;2023-03-05T09:33:06;11.90;;;10.80;;
26488;SDS011;14169;43.684;10.484;2023-03-05T09:35:35;12.43;;;10.77;;
26488;SDS011;14169;43.684;10.484;2023-03-05T09:38:02;10.65;;;9.68;;
26488;SDS011;14169;43.684;10.484;2023-03-05T09:40:35;14.63;;;10.27;;
26488;SDS011;14169;43.684;10.484;2023-03-05T09:43:18;12.48;;;11.18;;
26488;SDS011;14169;43.684;10.484;2023-03-05T09:46:09;14.40;;;10.77;;
26488;SDS011;14169;43.684;10.484;2023-03-05T09:51:15;16.38;;;11.95;;
26488;SDS011;14169;43.684;10.484;2023-03-05T09:53:47;13.55;;;10.52;;
26488;SDS011;14169;43.684;10.484;2023-03-05T09:56:20;14.00;;;12.60;;
26488;SDS011;14169;43.684;10.484;2023-03-05T09:58:51;14.63;;;11.18;;
26488;SDS011;14169;43.684;10.484;2023-03-05T10:01:20;15.18;;;12.70;;
26488;SDS011;14169;43.684;10.484;2023-03-05T10:07:06;19.30;;;11.95;;
26488;SDS011;14169;43.684;10.484;2023-03-05T10:12:17;15.20;;;12.18;;
26488;SDS011;14169;43.684;10.484;2023-03-05T10:14:51;14.40;;;11.10;;
26488;SDS011;14169;43.684;10.484;2023-03-05T10:43:10;9.65;;;8.65;;
26488;SDS011;14169;43.684;10.484;2023-03-05T10:45:43;10.90;;;9.73;;
26488;SDS011;14169;43.684;10.484;2023-03-05T10:51:11;18.27;;;13.88;;
26488;SDS011;14169;43.684;10.484;2023-03-05T10:53:57;15.90;;;10.60;;
26488;SDS011;14169;43.684;10.484;2023-03-05T10:56:26;12.38;;;9.38;;
26488;SDS011;14169;43.684;10.484;2023-03-05T10:58:53;23.30;;;16.80;;
26488;SDS011;14169;43.684;10.484;2023-03-05T11:01:26;10.88;;;9.25;;
26488;SDS011;14169;43.684;10.484;2023-03-05T11:06:31;12.32;;;11.18;;
26488;SDS011;14169;43.684;10.484;2023-03-05T11:14:43;19.88;;;11.73;;
26488;SDS011;14169;43.684;10.484;2023-03-05T11:17:45;16.67;;;10.93;;
26488;SDS011;14169;43.684;10.484;2023-03-05T11:20:52;15.50;;;11.90;;
26488;SDS011;14169;43.684;10.484;2023-03-05T11:28:20;18.35;;;11.60;;
26488;SDS011;14169;43.684;10.484;2023-03-05T11:30:58;18.67;;;12.27;;
26488;SDS011;14169;43.684;10.484;2023-03-05T11:33:34;15.20;;;13.32;;
26488;SDS011;14169;43.684;10.484;2023-03-05T11:38:54;23.45;;;12.90;;
26488;SDS011;14169;43.684;10.484;2023-03-05T11:41:55;19.85;;;12.70;;
26488;SDS011;14169;43.684;10.484;2023-03-05T11:44:17;20.25;;;12.00;;
26488;SDS011;14169;43.684;10.484;2023-03-05T11:46:55;19.60;;;11.00;;
26488;SDS011;14169;43.684;10.484;2023-03-05T11:49:26;19.75;;;11.80;;
26488;SDS011;14169;43.684;10.484;2023-03-05T11:52:02;21.90;;;10.45;;
26488;SDS011;14169;43.684;10.484;2023-03-05T11:54:50;17.17;;;11.23;;
26488;SDS011;14169;43.684;10.484;2023-03-05T11:57:17;18.15;;;10.98;;
26488;SDS011;14169;43.684;10.484;2023-03-05T11:59:45;21.73;;;11.82;;
26488;SDS011;14169;43.684;10.484;2023-03-05T12:02:16;23.85;;;12.45;;
26488;SDS011;14169;43.684;10.484;2023-03-05T12:04:44;19.58;;;10.63;;
26488;SDS011;14169;43.684;10.484;2023-03-05T12:07:11;18.77;;;11.10;;
26488;SDS011;14169;43.684;10.484;2023-03-05T12:17:48;19.98;;;11.68;;
26488;SDS011;14169;43.684;10.484;2023-03-05T12:23:20;15.02;;;10.48;;
26488;SDS011;14169;43.684;10.484;2023-03-05T12:25:47;20.33;;;10.00;;
26488;SDS011;14169;43.684;10.484;2023-03-05T12:28:59;19.08;;;11.50;;
26488;SDS011;14169;43.684;10.484;2023-03-05T12:31:01;17.27;;;11.25;;
26488;SDS011;14169;43.684;10.484;2023-03-05T12:38:39;21.45;;;10.82;;
26488;SDS011;14169;43.684;10.484;2023-03-05T12:49:26;17.58;;;10.55;;
26488;SDS011;14169;43.684;10.484;2023-03-05T12:51:50;15.68;;;11.55;;
26488;SDS011;14169;43.684;10.484;2023-03-05T12:54:33;18.88;;;10.55;;
26488;SDS011;14169;43.684;10.484;2023-03-05T12:57:21;21.35;;;11.23;;
26488;SDS011;14169;43.684;10.484;2023-03-05T12:59:57;21.33;;;9.57;;
26488;SDS011;14169;43.684;10.484;2023-03-05T13:05:06;19.63;;;10.52;;
26488;SDS011;14169;43.684;10.484;2023-03-05T13:07:43;17.88;;;9.45;;
26488;SDS011;14169;43.684;10.484;2023-03-05T13:10:19;19.92;;;10.18;;
26488;SDS011;14169;43.684;10.484;2023-03-05T13:12:48;20.27;;;10.25;;
26488;SDS011;14169;43.684;10.484;2023-03-05T13:15:17;24.08;;;9.20;;
26488;SDS011;14169;43.684;10.484;2023-03-05T13:18:01;14.43;;;8.95;;
26488;SDS011;14169;43.684;10.484;2023-03-05T13:23:18;25.60;;;9.27;;
26488;SDS011;14169;43.684;10.484;2023-03-05T13:25:44;17.08;;;9.48;;
26488;SDS011;14169;43.684;10.484;2023-03-05T13:28:23;18.40;;;10.98;;
26488;SDS011;14169;43.684;10.484;2023-03-05T13:30:49;19.58;;;10.65;;
26488;SDS011;14169;43.684;10.484;2023-03-05T13:33:18;27.27;;;10.18;;
26488;SDS011;14169;43.684;10.484;2023-03-05T13:38:21;19.77;;;10.73;;
26488;SDS011;14169;43.684;10.484;2023-03-05T13:41:00;21.27;;;11.52;;
26488;SDS011;14169;43.684;10.484;2023-03-05T13:43:27;24.60;;;11.98;;
26488;SDS011;14169;43.684;10.484;2023-03-05T13:45:53;22.38;;;11.55;;
26488;SDS011;14169;43.684;10.484;2023-03-05T13:48:22;21.35;;;10.70;;
26488;SDS011;14169;43.684;10.484;2023-03-05T13:50:54;24.35;;;12.93;;
26488;SDS011;14169;43.684;10.484;2023-03-05T13:53:28;29.75;;;12.40;;
26488;SDS011;14169;43.684;10.484;2023-03-05T13:56:00;21.27;;;11.18;;
26488;SDS011;14169;43.684;10.484;2023-03-05T13:58:41;27.70;;;12.93;;
26488;SDS011;14169;43.684;10.484;2023-03-05T14:03:37;22.60;;;10.95;;
26488;SDS011;14169;43.684;10.484;2023-03-05T14:06:06;19.15;;;12.23;;
26488;SDS011;14169;43.684;10.484;2023-03-05T14:08:34;21.45;;;12.52;;
26488;SDS011;14169;43.684;10.484;2023-03-05T14:11:10;20.77;;;12.52;;
26488;SDS011;14169;43.684;10.484;2023-03-05T14:13:40;23.50;;;12.88;;
26488;SDS011;14169;43.684;10.484;2023-03-05T14:18:33;20.63;;;12.80;;
26488;SDS011;14169;43.684;10.484;2023-03-05T14:21:03;23.23;;;10.52;;
26488;SDS011;14169;43.684;10.484;2023-03-05T14:23:35;18.83;;;11.73;;
26488;SDS011;14169;43.684;10.484;2023-03-05T14:28:54;27.20;;;12.27;;
26488;SDS011;14169;43.684;10.484;2023-03-05T14:31:22;22.08;;;11.88;;
26488;SDS011;14169;43.684;10.484;2023-03-05T14:33:48;27.42;;;12.48;;
26488;SDS011;14169;43.684;10.484;2023-03-05T14:36:19;32.90;;;13.43;;
26488;SDS011;14169;43.684;10.484;2023-03-05T14:38:48;24.27;;;12.18;;
26488;SDS011;14169;43.684;10.484;2023-03-05T14:41:19;28.05;;;12.90;;
26488;SDS011;14169;43.684;10.484;2023-03-05T14:44:10;24.13;;;12.55;;
26488;SDS011;14169;43.684;10.484;2023-03-05T14:46:37;29.67;;;13.27;;
26488;SDS011;14169;43.684;10.484;2023-03-05T14:49:03;28.08;;;14.40;;
26488;SDS011;14169;43.684;10.484;2023-03-05T14:51:36;31.42;;;14.32;;
26488;SDS011;14169;43.684;10.484;2023-03-05T14:54:04;23.00;;;13.43;;
26488;SDS011;14169;43.684;10.484;2023-03-05T14:56:41;33.97;;;13.60;;
26488;SDS011;14169;43.684;10.484;2023-03-05T14:59:07;25.90;;;14.55;;
26488;SDS011;14169;43.684;10.484;2023-03-05T15:01:32;28.52;;;15.07;;
26488;SDS011;14169;43.684;10.484;2023-03-05T15:03:58;24.63;;;13.88;;
26488;SDS011;14169;43.684;10.484;2023-03-05T15:06:32;26.55;;;13.77;;
26488;SDS011;14169;43.684;10.484;2023-03-05T15:09:00;28.90;;;15.20;;
26488;SDS011;14169;43.684;10.484;2023-03-05T15:11:28;20.55;;;14.38;;
26488;SDS011;14169;43.684;10.484;2023-03-05T15:13:53;25.10;;;14.02;;
26488;SDS011;14169;43.684;10.484;2023-03-05T15:16:19;23.48;;;13.30;;
26488;SDS011;14169;43.684;10.484;2023-03-05T15:18:46;32.67;;;14.95;;
26488;SDS011;14169;43.684;10.484;2023-03-05T15:21:11;23.83;;;13.50;;
26488;SDS011;14169;43.684;10.484;2023-03-05T15:23:37;23.08;;;13.90;;
26488;SDS011;14169;43.684;10.484;2023-03-05T15:26:03;31.85;;;14.68;;
26488;SDS011;14169;43.684;10.484;2023-03-05T15:28:34;29.20;;;14.38;;
26488;SDS011;14169;43.684;10.484;2023-03-05T15:31:00;34.15;;;14.93;;
26488;SDS011;14169;43.684;10.484;2023-03-05T15:33:27;24.00;;;13.88;;
26488;SDS011;14169;43.684;10.484;2023-03-05T15:35:53;25.38;;;12.63;;
26488;SDS011;14169;43.684;10.484;2023-03-05T15:38:19;20.95;;;12.50;;
26488;SDS011;14169;43.684;10.484;2023-03-05T15:40:45;30.33;;;13.02;;
26488;SDS011;14169;43.684;10.484;2023-03-05T15:43:11;25.85;;;12.98;;
26488;SDS011;14169;43.684;10.484;2023-03-05T15:45:36;25.88;;;13.52;;
26488;SDS011;14169;43.684;10.484;2023-03-05T15:48:02;27.05;;;13.48;;
26488;SDS011;14169;43.684;10.484;2023-03-05T15:50:28;20.80;;;11.95;;
26488;SDS011;14169;43.684;10.484;2023-03-05T15:52:53;22.67;;;12.65;;